Webcam Flughafen St.Gallen-Altenrhein

Live-Bilder und Zeitraffer LSZR / ACH.

 

Live aus Altenrhein
LIVE
LSZR 230020Z AUTO VRB02KT 8000 NCD 02/00 Q1028
Zeitraffer heute
2019-03-23 00:14:04
LSZR 222250Z AUTO VRB02KT CAVOK 03/01 Q1028
Zeitraffer gestern
2019-03-22 00:14:41
LSZR 212250Z AUTO VRB02KT CAVOK 01/M01 Q1030
Zeitraffer vor 3 Tagen
2019-03-20 00:15:00
LSZR 192250Z AUTO VRB02KT CAVOK 01/M01 Q1031